sensor_id;sensor_type;location;lat;lon;timestamp;P1;durP1;ratioP1;P2;durP2;ratioP2
15946;SDS011;8072;52.554;7.966;2023-01-20T00:01:17;53.20;;;20.00;;
15946;SDS011;8072;52.554;7.966;2023-01-20T00:03:43;47.53;;;19.23;;
15946;SDS011;8072;52.554;7.966;2023-01-20T00:06:09;48.53;;;19.10;;
15946;SDS011;8072;52.554;7.966;2023-01-20T00:08:36;49.50;;;19.87;;
15946;SDS011;8072;52.554;7.966;2023-01-20T00:11:03;44.10;;;18.47;;
15946;SDS011;8072;52.554;7.966;2023-01-20T00:13:34;43.83;;;18.43;;
15946;SDS011;8072;52.554;7.966;2023-01-20T00:16:01;52.00;;;18.83;;
15946;SDS011;8072;52.554;7.966;2023-01-20T00:18:31;43.37;;;18.97;;
15946;SDS011;8072;52.554;7.966;2023-01-20T00:21:00;49.07;;;19.03;;
15946;SDS011;8072;52.554;7.966;2023-01-20T00:23:27;46.47;;;19.37;;
15946;SDS011;8072;52.554;7.966;2023-01-20T00:25:53;44.80;;;18.43;;
15946;SDS011;8072;52.554;7.966;2023-01-20T00:28:19;45.70;;;19.00;;
15946;SDS011;8072;52.554;7.966;2023-01-20T00:30:44;48.83;;;17.90;;
15946;SDS011;8072;52.554;7.966;2023-01-20T00:33:10;50.60;;;19.67;;
15946;SDS011;8072;52.554;7.966;2023-01-20T00:38:59;44.07;;;18.20;;
15946;SDS011;8072;52.554;7.966;2023-01-20T00:41:25;46.03;;;18.60;;
15946;SDS011;8072;52.554;7.966;2023-01-20T00:43:51;47.93;;;18.33;;
15946;SDS011;8072;52.554;7.966;2023-01-20T00:46:17;45.23;;;18.47;;
15946;SDS011;8072;52.554;7.966;2023-01-20T00:48:43;48.17;;;18.20;;
15946;SDS011;8072;52.554;7.966;2023-01-20T00:51:08;38.93;;;17.33;;
15946;SDS011;8072;52.554;7.966;2023-01-20T00:53:35;49.40;;;17.33;;
15946;SDS011;8072;52.554;7.966;2023-01-20T00:56:01;44.27;;;17.73;;
15946;SDS011;8072;52.554;7.966;2023-01-20T00:58:27;45.50;;;17.57;;
15946;SDS011;8072;52.554;7.966;2023-01-20T01:00:53;46.53;;;17.30;;
15946;SDS011;8072;52.554;7.966;2023-01-20T01:03:20;44.27;;;17.63;;
15946;SDS011;8072;52.554;7.966;2023-01-20T01:05:46;47.80;;;17.93;;
15946;SDS011;8072;52.554;7.966;2023-01-20T01:08:12;42.80;;;17.20;;
15946;SDS011;8072;52.554;7.966;2023-01-20T01:10:38;42.20;;;17.33;;
15946;SDS011;8072;52.554;7.966;2023-01-20T01:13:04;39.73;;;17.37;;
15946;SDS011;8072;52.554;7.966;2023-01-20T01:15:31;49.63;;;17.47;;
15946;SDS011;8072;52.554;7.966;2023-01-20T01:17:57;39.43;;;17.03;;
15946;SDS011;8072;52.554;7.966;2023-01-20T01:20:24;43.90;;;17.93;;
15946;SDS011;8072;52.554;7.966;2023-01-20T01:22:51;46.90;;;18.97;;
15946;SDS011;8072;52.554;7.966;2023-01-20T01:25:16;44.53;;;18.00;;
15946;SDS011;8072;52.554;7.966;2023-01-20T01:27:42;48.63;;;17.97;;
15946;SDS011;8072;52.554;7.966;2023-01-20T01:30:08;45.13;;;17.87;;
15946;SDS011;8072;52.554;7.966;2023-01-20T01:32:34;48.63;;;18.10;;
15946;SDS011;8072;52.554;7.966;2023-01-20T01:35:00;45.07;;;17.77;;
15946;SDS011;8072;52.554;7.966;2023-01-20T01:37:26;43.00;;;18.17;;
15946;SDS011;8072;52.554;7.966;2023-01-20T01:39:52;44.23;;;18.10;;
15946;SDS011;8072;52.554;7.966;2023-01-20T01:42:19;47.40;;;17.37;;
15946;SDS011;8072;52.554;7.966;2023-01-20T01:47:43;44.93;;;17.90;;
15946;SDS011;8072;52.554;7.966;2023-01-20T01:50:31;48.10;;;18.90;;
15946;SDS011;8072;52.554;7.966;2023-01-20T01:53:01;37.20;;;15.67;;
15946;SDS011;8072;52.554;7.966;2023-01-20T01:55:29;38.50;;;16.53;;
15946;SDS011;8072;52.554;7.966;2023-01-20T01:57:58;40.97;;;18.80;;
15946;SDS011;8072;52.554;7.966;2023-01-20T02:00:25;50.53;;;17.47;;
15946;SDS011;8072;52.554;7.966;2023-01-20T02:02:51;44.20;;;18.20;;
15946;SDS011;8072;52.554;7.966;2023-01-20T02:05:18;42.90;;;17.43;;
15946;SDS011;8072;52.554;7.966;2023-01-20T02:07:45;42.97;;;17.67;;
15946;SDS011;8072;52.554;7.966;2023-01-20T02:10:11;37.10;;;17.73;;
15946;SDS011;8072;52.554;7.966;2023-01-20T02:12:40;46.83;;;18.63;;
15946;SDS011;8072;52.554;7.966;2023-01-20T02:15:08;38.50;;;17.87;;
15946;SDS011;8072;52.554;7.966;2023-01-20T02:26:25;45.57;;;18.30;;
15946;SDS011;8072;52.554;7.966;2023-01-20T02:45:05;36.93;;;14.90;;
15946;SDS011;8072;52.554;7.966;2023-01-20T02:47:43;36.40;;;15.77;;
15946;SDS011;8072;52.554;7.966;2023-01-20T02:50:20;33.03;;;14.33;;
15946;SDS011;8072;52.554;7.966;2023-01-20T02:52:51;32.77;;;15.17;;
15946;SDS011;8072;52.554;7.966;2023-01-20T02:55:27;38.07;;;15.57;;
15946;SDS011;8072;52.554;7.966;2023-01-20T02:58:04;32.37;;;14.07;;
15946;SDS011;8072;52.554;7.966;2023-01-20T03:00:47;35.50;;;15.03;;
15946;SDS011;8072;52.554;7.966;2023-01-20T03:03:18;29.97;;;13.20;;
15946;SDS011;8072;52.554;7.966;2023-01-20T03:05:49;32.50;;;13.60;;
15946;SDS011;8072;52.554;7.966;2023-01-20T03:08:19;33.93;;;14.20;;
15946;SDS011;8072;52.554;7.966;2023-01-20T03:10:47;29.30;;;14.57;;
15946;SDS011;8072;52.554;7.966;2023-01-20T03:13:25;34.90;;;14.17;;
15946;SDS011;8072;52.554;7.966;2023-01-20T03:15:57;35.33;;;13.57;;
15946;SDS011;8072;52.554;7.966;2023-01-20T03:18:28;32.13;;;13.67;;
15946;SDS011;8072;52.554;7.966;2023-01-20T03:20:55;37.97;;;14.00;;
15946;SDS011;8072;52.554;7.966;2023-01-20T03:23:23;27.57;;;12.97;;
15946;SDS011;8072;52.554;7.966;2023-01-20T03:25:51;33.17;;;14.27;;
15946;SDS011;8072;52.554;7.966;2023-01-20T03:28:18;28.77;;;12.97;;
15946;SDS011;8072;52.554;7.966;2023-01-20T03:30:43;33.60;;;15.60;;
15946;SDS011;8072;52.554;7.966;2023-01-20T03:33:09;38.37;;;14.70;;
15946;SDS011;8072;52.554;7.966;2023-01-20T03:35:36;38.07;;;15.97;;
15946;SDS011;8072;52.554;7.966;2023-01-20T03:38:02;40.30;;;15.40;;
15946;SDS011;8072;52.554;7.966;2023-01-20T03:40:29;35.27;;;14.77;;
15946;SDS011;8072;52.554;7.966;2023-01-20T03:43:02;34.40;;;14.57;;
15946;SDS011;8072;52.554;7.966;2023-01-20T03:45:40;33.53;;;14.17;;
15946;SDS011;8072;52.554;7.966;2023-01-20T03:51:09;32.87;;;15.03;;
15946;SDS011;8072;52.554;7.966;2023-01-20T03:53:50;29.57;;;13.33;;
15946;SDS011;8072;52.554;7.966;2023-01-20T03:58:49;29.37;;;13.20;;
15946;SDS011;8072;52.554;7.966;2023-01-20T04:01:21;33.90;;;14.40;;
15946;SDS011;8072;52.554;7.966;2023-01-20T04:03:54;28.03;;;12.80;;
15946;SDS011;8072;52.554;7.966;2023-01-20T04:06:21;33.63;;;13.27;;
15946;SDS011;8072;52.554;7.966;2023-01-20T04:08:50;33.73;;;13.67;;
15946;SDS011;8072;52.554;7.966;2023-01-20T04:11:23;31.77;;;13.47;;
15946;SDS011;8072;52.554;7.966;2023-01-20T04:13:51;34.67;;;13.23;;
15946;SDS011;8072;52.554;7.966;2023-01-20T04:16:17;31.77;;;13.87;;
15946;SDS011;8072;52.554;7.966;2023-01-20T04:18:45;31.03;;;13.63;;
15946;SDS011;8072;52.554;7.966;2023-01-20T04:26:35;35.07;;;13.60;;
15946;SDS011;8072;52.554;7.966;2023-01-20T04:29:06;37.67;;;14.63;;
15946;SDS011;8072;52.554;7.966;2023-01-20T04:31:34;39.23;;;15.23;;
15946;SDS011;8072;52.554;7.966;2023-01-20T04:34:01;33.83;;;13.90;;
15946;SDS011;8072;52.554;7.966;2023-01-20T04:36:28;34.27;;;14.33;;
15946;SDS011;8072;52.554;7.966;2023-01-20T04:38:55;29.17;;;13.50;;
15946;SDS011;8072;52.554;7.966;2023-01-20T04:41:21;36.03;;;14.73;;
15946;SDS011;8072;52.554;7.966;2023-01-20T04:43:47;30.27;;;13.13;;
15946;SDS011;8072;52.554;7.966;2023-01-20T04:46:13;33.83;;;14.03;;
15946;SDS011;8072;52.554;7.966;2023-01-20T04:48:40;38.23;;;15.23;;
15946;SDS011;8072;52.554;7.966;2023-01-20T04:51:06;34.00;;;14.20;;
15946;SDS011;8072;52.554;7.966;2023-01-20T04:53:32;34.97;;;14.40;;
15946;SDS011;8072;52.554;7.966;2023-01-20T04:55:58;33.93;;;13.70;;
15946;SDS011;8072;52.554;7.966;2023-01-20T04:58:24;32.07;;;14.23;;
15946;SDS011;8072;52.554;7.966;2023-01-20T05:00:50;32.47;;;14.03;;
15946;SDS011;8072;52.554;7.966;2023-01-20T05:03:16;33.17;;;13.33;;
15946;SDS011;8072;52.554;7.966;2023-01-20T05:05:42;33.70;;;14.57;;
15946;SDS011;8072;52.554;7.966;2023-01-20T05:08:08;34.13;;;14.27;;
15946;SDS011;8072;52.554;7.966;2023-01-20T05:10:34;34.20;;;14.53;;
15946;SDS011;8072;52.554;7.966;2023-01-20T05:13:00;32.90;;;14.23;;
15946;SDS011;8072;52.554;7.966;2023-01-20T05:15:26;35.13;;;14.53;;
15946;SDS011;8072;52.554;7.966;2023-01-20T05:17:52;32.20;;;14.27;;
15946;SDS011;8072;52.554;7.966;2023-01-20T05:20:18;33.97;;;13.70;;
15946;SDS011;8072;52.554;7.966;2023-01-20T05:22:45;36.10;;;15.30;;
15946;SDS011;8072;52.554;7.966;2023-01-20T05:25:11;32.30;;;14.00;;
15946;SDS011;8072;52.554;7.966;2023-01-20T05:27:37;31.60;;;13.97;;
15946;SDS011;8072;52.554;7.966;2023-01-20T05:30:06;35.67;;;14.97;;
15946;SDS011;8072;52.554;7.966;2023-01-20T05:32:32;35.00;;;14.67;;
15946;SDS011;8072;52.554;7.966;2023-01-20T05:34:58;31.50;;;13.27;;
15946;SDS011;8072;52.554;7.966;2023-01-20T05:37:23;34.43;;;13.77;;
15946;SDS011;8072;52.554;7.966;2023-01-20T05:39:49;34.03;;;13.90;;
15946;SDS011;8072;52.554;7.966;2023-01-20T05:42:15;36.10;;;15.20;;
15946;SDS011;8072;52.554;7.966;2023-01-20T05:44:40;37.60;;;15.03;;
15946;SDS011;8072;52.554;7.966;2023-01-20T05:47:06;32.17;;;13.47;;
15946;SDS011;8072;52.554;7.966;2023-01-20T05:49:32;33.33;;;14.27;;
15946;SDS011;8072;52.554;7.966;2023-01-20T05:51:58;35.40;;;15.33;;
15946;SDS011;8072;52.554;7.966;2023-01-20T05:54:23;36.80;;;14.70;;
15946;SDS011;8072;52.554;7.966;2023-01-20T05:56:50;32.13;;;13.97;;
15946;SDS011;8072;52.554;7.966;2023-01-20T05:59:16;35.60;;;14.60;;
15946;SDS011;8072;52.554;7.966;2023-01-20T06:01:42;34.70;;;14.27;;
15946;SDS011;8072;52.554;7.966;2023-01-20T06:04:08;33.80;;;14.93;;
15946;SDS011;8072;52.554;7.966;2023-01-20T06:06:33;39.83;;;15.63;;
15946;SDS011;8072;52.554;7.966;2023-01-20T06:08:59;35.93;;;14.87;;
15946;SDS011;8072;52.554;7.966;2023-01-20T06:11:25;32.77;;;14.47;;
15946;SDS011;8072;52.554;7.966;2023-01-20T06:13:51;33.53;;;14.57;;
15946;SDS011;8072;52.554;7.966;2023-01-20T06:16:17;37.07;;;14.53;;
15946;SDS011;8072;52.554;7.966;2023-01-20T06:18:43;33.77;;;13.87;;
15946;SDS011;8072;52.554;7.966;2023-01-20T06:21:09;32.27;;;14.37;;
15946;SDS011;8072;52.554;7.966;2023-01-20T06:23:34;35.47;;;14.70;;
15946;SDS011;8072;52.554;7.966;2023-01-20T06:26:01;27.07;;;12.30;;
15946;SDS011;8072;52.554;7.966;2023-01-20T06:28:29;30.50;;;13.10;;
15946;SDS011;8072;52.554;7.966;2023-01-20T06:31:09;29.07;;;12.60;;
15946;SDS011;8072;52.554;7.966;2023-01-20T06:33:37;28.50;;;12.03;;
15946;SDS011;8072;52.554;7.966;2023-01-20T06:36:03;30.03;;;12.00;;
15946;SDS011;8072;52.554;7.966;2023-01-20T06:38:30;32.37;;;13.43;;
15946;SDS011;8072;52.554;7.966;2023-01-20T06:40:58;27.07;;;12.03;;
15946;SDS011;8072;52.554;7.966;2023-01-20T06:43:26;29.13;;;12.37;;
15946;SDS011;8072;52.554;7.966;2023-01-20T06:46:01;30.23;;;12.83;;
15946;SDS011;8072;52.554;7.966;2023-01-20T06:48:28;25.60;;;12.10;;
15946;SDS011;8072;52.554;7.966;2023-01-20T06:51:14;31.77;;;12.60;;
15946;SDS011;8072;52.554;7.966;2023-01-20T06:53:42;26.60;;;12.10;;
15946;SDS011;8072;52.554;7.966;2023-01-20T06:56:08;27.93;;;11.90;;
15946;SDS011;8072;52.554;7.966;2023-01-20T06:58:36;29.20;;;12.13;;
15946;SDS011;8072;52.554;7.966;2023-01-20T07:03:32;25.67;;;11.17;;
15946;SDS011;8072;52.554;7.966;2023-01-20T07:06:00;23.33;;;11.73;;
15946;SDS011;8072;52.554;7.966;2023-01-20T07:08:28;22.60;;;10.90;;
15946;SDS011;8072;52.554;7.966;2023-01-20T07:10:54;27.93;;;10.90;;
15946;SDS011;8072;52.554;7.966;2023-01-20T07:13:20;24.37;;;11.17;;
15946;SDS011;8072;52.554;7.966;2023-01-20T07:15:46;28.13;;;11.47;;
15946;SDS011;8072;52.554;7.966;2023-01-20T07:18:12;23.03;;;10.40;;
15946;SDS011;8072;52.554;7.966;2023-01-20T07:20:38;26.10;;;12.60;;
15946;SDS011;8072;52.554;7.966;2023-01-20T07:23:04;25.90;;;10.80;;
15946;SDS011;8072;52.554;7.966;2023-01-20T07:25:30;20.43;;;10.23;;
15946;SDS011;8072;52.554;7.966;2023-01-20T07:27:55;23.47;;;10.50;;
15946;SDS011;8072;52.554;7.966;2023-01-20T07:30:24;19.83;;;10.23;;
15946;SDS011;8072;52.554;7.966;2023-01-20T07:32:50;25.50;;;10.90;;
15946;SDS011;8072;52.554;7.966;2023-01-20T07:35:15;24.17;;;11.33;;
15946;SDS011;8072;52.554;7.966;2023-01-20T07:37:41;25.20;;;11.70;;
15946;SDS011;8072;52.554;7.966;2023-01-20T07:40:07;22.63;;;11.23;;
15946;SDS011;8072;52.554;7.966;2023-01-20T07:42:37;22.77;;;11.20;;
15946;SDS011;8072;52.554;7.966;2023-01-20T07:45:03;21.47;;;10.30;;
15946;SDS011;8072;52.554;7.966;2023-01-20T07:47:29;24.13;;;11.20;;
15946;SDS011;8072;52.554;7.966;2023-01-20T07:49:55;24.10;;;11.57;;
15946;SDS011;8072;52.554;7.966;2023-01-20T07:52:21;20.57;;;9.87;;
15946;SDS011;8072;52.554;7.966;2023-01-20T07:54:46;21.80;;;10.57;;
15946;SDS011;8072;52.554;7.966;2023-01-20T07:57:12;24.20;;;11.33;;
15946;SDS011;8072;52.554;7.966;2023-01-20T07:59:38;22.77;;;11.50;;
15946;SDS011;8072;52.554;7.966;2023-01-20T08:02:04;25.00;;;11.00;;
15946;SDS011;8072;52.554;7.966;2023-01-20T08:04:30;27.97;;;11.83;;
15946;SDS011;8072;52.554;7.966;2023-01-20T08:06:57;26.60;;;11.70;;
15946;SDS011;8072;52.554;7.966;2023-01-20T08:09:23;25.13;;;11.27;;
15946;SDS011;8072;52.554;7.966;2023-01-20T08:11:49;26.37;;;11.70;;
15946;SDS011;8072;52.554;7.966;2023-01-20T08:14:15;23.50;;;10.97;;
15946;SDS011;8072;52.554;7.966;2023-01-20T08:16:40;27.67;;;12.63;;
15946;SDS011;8072;52.554;7.966;2023-01-20T08:19:06;27.87;;;12.53;;
15946;SDS011;8072;52.554;7.966;2023-01-20T08:21:32;27.77;;;11.37;;
15946;SDS011;8072;52.554;7.966;2023-01-20T08:23:58;26.97;;;11.80;;
15946;SDS011;8072;52.554;7.966;2023-01-20T08:26:26;22.93;;;12.20;;
15946;SDS011;8072;52.554;7.966;2023-01-20T08:28:54;21.93;;;11.67;;
15946;SDS011;8072;52.554;7.966;2023-01-20T08:31:25;25.40;;;11.90;;
15946;SDS011;8072;52.554;7.966;2023-01-20T08:33:54;27.40;;;12.73;;
15946;SDS011;8072;52.554;7.966;2023-01-20T08:36:28;27.97;;;11.83;;
15946;SDS011;8072;52.554;7.966;2023-01-20T08:38:57;23.40;;;11.63;;
15946;SDS011;8072;52.554;7.966;2023-01-20T08:41:34;24.57;;;11.90;;
15946;SDS011;8072;52.554;7.966;2023-01-20T08:44:02;30.43;;;12.77;;
15946;SDS011;8072;52.554;7.966;2023-01-20T08:46:29;24.13;;;11.40;;
15946;SDS011;8072;52.554;7.966;2023-01-20T08:48:56;26.27;;;12.33;;
15946;SDS011;8072;52.554;7.966;2023-01-20T08:51:23;25.10;;;11.33;;
15946;SDS011;8072;52.554;7.966;2023-01-20T08:53:51;24.83;;;11.80;;
15946;SDS011;8072;52.554;7.966;2023-01-20T08:56:17;27.33;;;11.60;;
15946;SDS011;8072;52.554;7.966;2023-01-20T08:58:43;28.83;;;12.00;;
15946;SDS011;8072;52.554;7.966;2023-01-20T09:01:14;29.90;;;12.63;;
15946;SDS011;8072;52.554;7.966;2023-01-20T09:03:44;27.40;;;11.67;;
15946;SDS011;8072;52.554;7.966;2023-01-20T09:06:11;29.17;;;11.97;;
15946;SDS011;8072;52.554;7.966;2023-01-20T09:08:37;28.03;;;12.60;;
15946;SDS011;8072;52.554;7.966;2023-01-20T09:11:08;27.47;;;12.57;;
15946;SDS011;8072;52.554;7.966;2023-01-20T09:13:36;27.03;;;11.90;;
15946;SDS011;8072;52.554;7.966;2023-01-20T09:16:02;22.93;;;10.43;;
15946;SDS011;8072;52.554;7.966;2023-01-20T09:18:31;26.33;;;12.30;;
15946;SDS011;8072;52.554;7.966;2023-01-20T09:20:58;27.33;;;12.27;;
15946;SDS011;8072;52.554;7.966;2023-01-20T09:23:26;29.00;;;12.63;;
15946;SDS011;8072;52.554;7.966;2023-01-20T09:25:53;28.40;;;12.13;;
15946;SDS011;8072;52.554;7.966;2023-01-20T09:28:19;25.93;;;12.43;;
15946;SDS011;8072;52.554;7.966;2023-01-20T09:30:45;27.83;;;12.07;;
15946;SDS011;8072;52.554;7.966;2023-01-20T09:33:11;29.00;;;11.73;;
15946;SDS011;8072;52.554;7.966;2023-01-20T09:35:38;23.57;;;11.77;;
15946;SDS011;8072;52.554;7.966;2023-01-20T09:38:04;29.03;;;12.37;;
15946;SDS011;8072;52.554;7.966;2023-01-20T09:41:16;31.03;;;11.80;;
15946;SDS011;8072;52.554;7.966;2023-01-20T09:47:03;25.27;;;12.53;;
15946;SDS011;8072;52.554;7.966;2023-01-20T09:52:37;27.53;;;11.63;;
15946;SDS011;8072;52.554;7.966;2023-01-20T09:55:24;27.03;;;11.83;;
15946;SDS011;8072;52.554;7.966;2023-01-20T10:07:15;27.23;;;12.00;;
15946;SDS011;8072;52.554;7.966;2023-01-20T10:15:25;30.00;;;12.70;;
15946;SDS011;8072;52.554;7.966;2023-01-20T10:17:55;25.60;;;11.77;;
15946;SDS011;8072;52.554;7.966;2023-01-20T10:25:39;25.33;;;11.40;;
15946;SDS011;8072;52.554;7.966;2023-01-20T10:28:15;25.17;;;11.20;;
15946;SDS011;8072;52.554;7.966;2023-01-20T10:30:48;25.27;;;11.30;;
15946;SDS011;8072;52.554;7.966;2023-01-20T10:33:16;22.83;;;11.07;;
15946;SDS011;8072;52.554;7.966;2023-01-20T10:35:51;22.37;;;10.37;;
15946;SDS011;8072;52.554;7.966;2023-01-20T10:41:15;25.30;;;11.43;;
15946;SDS011;8072;52.554;7.966;2023-01-20T10:44:00;21.23;;;10.53;;
15946;SDS011;8072;52.554;7.966;2023-01-20T10:46:35;26.43;;;12.60;;
15946;SDS011;8072;52.554;7.966;2023-01-20T10:57:13;27.17;;;12.93;;
15946;SDS011;8072;52.554;7.966;2023-01-20T10:59:50;29.30;;;12.63;;
15946;SDS011;8072;52.554;7.966;2023-01-20T11:02:27;25.70;;;11.80;;
15946;SDS011;8072;52.554;7.966;2023-01-20T11:04:59;30.70;;;13.57;;
15946;SDS011;8072;52.554;7.966;2023-01-20T11:07:28;26.90;;;12.87;;
15946;SDS011;8072;52.554;7.966;2023-01-20T11:09:56;29.47;;;12.27;;
15946;SDS011;8072;52.554;7.966;2023-01-20T11:12:34;28.43;;;12.80;;
15946;SDS011;8072;52.554;7.966;2023-01-20T11:15:08;24.97;;;11.77;;
15946;SDS011;8072;52.554;7.966;2023-01-20T11:17:41;28.17;;;11.97;;
15946;SDS011;8072;52.554;7.966;2023-01-20T11:20:12;24.80;;;12.03;;
15946;SDS011;8072;52.554;7.966;2023-01-20T11:22:47;22.13;;;10.47;;
15946;SDS011;8072;52.554;7.966;2023-01-20T11:25:24;26.83;;;11.43;;
15946;SDS011;8072;52.554;7.966;2023-01-20T11:27:51;27.70;;;11.70;;
15946;SDS011;8072;52.554;7.966;2023-01-20T11:30:19;25.10;;;10.33;;
15946;SDS011;8072;52.554;7.966;2023-01-20T11:33:05;20.50;;;10.30;;
15946;SDS011;8072;52.554;7.966;2023-01-20T11:35:32;22.67;;;11.13;;
15946;SDS011;8072;52.554;7.966;2023-01-20T11:37:59;28.93;;;13.83;;
15946;SDS011;8072;52.554;7.966;2023-01-20T11:40:50;28.67;;;12.43;;
15946;SDS011;8072;52.554;7.966;2023-01-20T11:43:27;25.63;;;12.03;;
15946;SDS011;8072;52.554;7.966;2023-01-20T11:51:45;26.43;;;12.27;;
15946;SDS011;8072;52.554;7.966;2023-01-20T11:54:22;28.23;;;12.50;;
15946;SDS011;8072;52.554;7.966;2023-01-20T11:56:59;22.83;;;11.93;;
15946;SDS011;8072;52.554;7.966;2023-01-20T11:59:34;30.40;;;13.57;;
15946;SDS011;8072;52.554;7.966;2023-01-20T12:10:16;28.37;;;13.03;;
15946;SDS011;8072;52.554;7.966;2023-01-20T12:15:31;28.13;;;13.73;;
15946;SDS011;8072;52.554;7.966;2023-01-20T12:26:09;32.40;;;14.17;;
15946;SDS011;8072;52.554;7.966;2023-01-20T12:31:16;32.27;;;13.27;;
15946;SDS011;8072;52.554;7.966;2023-01-20T12:33:45;29.90;;;14.07;;
15946;SDS011;8072;52.554;7.966;2023-01-20T12:39:03;36.73;;;14.90;;
15946;SDS011;8072;52.554;7.966;2023-01-20T12:44:31;32.70;;;14.23;;
15946;SDS011;8072;52.554;7.966;2023-01-20T12:47:28;32.03;;;13.47;;
15946;SDS011;8072;52.554;7.966;2023-01-20T12:55:22;29.93;;;13.07;;
15946;SDS011;8072;52.554;7.966;2023-01-20T13:14:23;30.00;;;13.63;;
15946;SDS011;8072;52.554;7.966;2023-01-20T13:19:45;24.33;;;12.13;;
15946;SDS011;8072;52.554;7.966;2023-01-20T13:22:20;25.93;;;11.63;;
15946;SDS011;8072;52.554;7.966;2023-01-20T13:24:51;25.03;;;13.03;;
15946;SDS011;8072;52.554;7.966;2023-01-20T13:27:24;30.07;;;14.03;;
15946;SDS011;8072;52.554;7.966;2023-01-20T13:29:57;26.87;;;13.13;;
15946;SDS011;8072;52.554;7.966;2023-01-20T13:32:34;25.53;;;12.20;;
15946;SDS011;8072;52.554;7.966;2023-01-20T13:37:51;27.13;;;11.90;;
15946;SDS011;8072;52.554;7.966;2023-01-20T13:43:00;32.13;;;13.10;;
15946;SDS011;8072;52.554;7.966;2023-01-20T13:45:26;25.70;;;12.50;;
15946;SDS011;8072;52.554;7.966;2023-01-20T13:47:57;28.20;;;13.40;;
15946;SDS011;8072;52.554;7.966;2023-01-20T13:50:44;23.43;;;11.87;;
15946;SDS011;8072;52.554;7.966;2023-01-20T14:00:37;24.87;;;12.43;;
15946;SDS011;8072;52.554;7.966;2023-01-20T14:03:24;25.23;;;10.87;;
15946;SDS011;8072;52.554;7.966;2023-01-20T14:08:24;27.23;;;12.23;;
15946;SDS011;8072;52.554;7.966;2023-01-20T14:11:02;25.60;;;12.40;;
15946;SDS011;8072;52.554;7.966;2023-01-20T14:13:38;26.83;;;12.67;;
15946;SDS011;8072;52.554;7.966;2023-01-20T14:16:05;28.73;;;13.30;;
15946;SDS011;8072;52.554;7.966;2023-01-20T14:18:41;27.33;;;13.00;;
15946;SDS011;8072;52.554;7.966;2023-01-20T14:23:47;25.20;;;13.27;;
15946;SDS011;8072;52.554;7.966;2023-01-20T14:26:23;24.63;;;11.83;;
15946;SDS011;8072;52.554;7.966;2023-01-20T14:28:54;29.93;;;13.10;;
15946;SDS011;8072;52.554;7.966;2023-01-20T14:31:33;25.43;;;12.90;;
15946;SDS011;8072;52.554;7.966;2023-01-20T14:34:21;29.70;;;12.97;;
15946;SDS011;8072;52.554;7.966;2023-01-20T14:36:56;26.27;;;12.80;;
15946;SDS011;8072;52.554;7.966;2023-01-20T14:39:24;23.47;;;11.93;;
15946;SDS011;8072;52.554;7.966;2023-01-20T14:41:56;27.77;;;13.40;;
15946;SDS011;8072;52.554;7.966;2023-01-20T14:44:24;26.93;;;13.17;;
15946;SDS011;8072;52.554;7.966;2023-01-20T14:46:52;26.03;;;13.37;;
15946;SDS011;8072;52.554;7.966;2023-01-20T14:49:21;27.13;;;12.67;;
15946;SDS011;8072;52.554;7.966;2023-01-20T14:51:50;25.60;;;12.73;;
15946;SDS011;8072;52.554;7.966;2023-01-20T14:54:31;26.40;;;12.07;;
15946;SDS011;8072;52.554;7.966;2023-01-20T14:57:09;22.43;;;11.40;;
15946;SDS011;8072;52.554;7.966;2023-01-20T14:59:42;24.13;;;11.73;;
15946;SDS011;8072;52.554;7.966;2023-01-20T15:02:13;22.97;;;12.13;;
15946;SDS011;8072;52.554;7.966;2023-01-20T15:04:47;22.37;;;11.67;;
15946;SDS011;8072;52.554;7.966;2023-01-20T15:07:17;21.67;;;11.27;;
15946;SDS011;8072;52.554;7.966;2023-01-20T15:09:49;23.80;;;11.20;;
15946;SDS011;8072;52.554;7.966;2023-01-20T15:15:11;23.97;;;11.27;;
15946;SDS011;8072;52.554;7.966;2023-01-20T15:18:01;22.53;;;12.60;;
15946;SDS011;8072;52.554;7.966;2023-01-20T15:20:31;22.57;;;12.47;;
15946;SDS011;8072;52.554;7.966;2023-01-20T15:22:59;22.73;;;12.00;;
15946;SDS011;8072;52.554;7.966;2023-01-20T15:25:25;24.07;;;12.20;;
15946;SDS011;8072;52.554;7.966;2023-01-20T15:27:52;21.83;;;11.13;;
15946;SDS011;8072;52.554;7.966;2023-01-20T15:30:19;23.57;;;10.63;;
15946;SDS011;8072;52.554;7.966;2023-01-20T15:32:49;19.90;;;9.90;;
15946;SDS011;8072;52.554;7.966;2023-01-20T15:35:16;22.87;;;10.07;;
15946;SDS011;8072;52.554;7.966;2023-01-20T15:37:45;20.53;;;10.50;;
15946;SDS011;8072;52.554;7.966;2023-01-20T15:40:18;20.47;;;10.83;;
15946;SDS011;8072;52.554;7.966;2023-01-20T15:42:46;22.73;;;12.67;;
15946;SDS011;8072;52.554;7.966;2023-01-20T15:45:13;21.87;;;13.17;;
15946;SDS011;8072;52.554;7.966;2023-01-20T15:47:40;23.77;;;12.83;;
15946;SDS011;8072;52.554;7.966;2023-01-20T15:50:17;23.47;;;11.40;;
15946;SDS011;8072;52.554;7.966;2023-01-20T15:52:47;21.47;;;11.23;;
15946;SDS011;8072;52.554;7.966;2023-01-20T15:55:13;20.33;;;10.60;;
15946;SDS011;8072;52.554;7.966;2023-01-20T15:57:40;20.37;;;10.93;;
15946;SDS011;8072;52.554;7.966;2023-01-20T16:00:10;19.17;;;11.00;;
15946;SDS011;8072;52.554;7.966;2023-01-20T16:02:40;23.33;;;11.23;;
15946;SDS011;8072;52.554;7.966;2023-01-20T16:05:06;24.57;;;12.00;;
15946;SDS011;8072;52.554;7.966;2023-01-20T16:07:32;24.57;;;12.23;;
15946;SDS011;8072;52.554;7.966;2023-01-20T16:09:57;21.60;;;10.77;;
15946;SDS011;8072;52.554;7.966;2023-01-20T16:12:23;21.40;;;11.10;;
15946;SDS011;8072;52.554;7.966;2023-01-20T16:14:49;24.97;;;12.10;;
15946;SDS011;8072;52.554;7.966;2023-01-20T16:17:18;21.57;;;11.27;;
15946;SDS011;8072;52.554;7.966;2023-01-20T16:21:04;20.17;;;10.53;;
15946;SDS011;8072;52.554;7.966;2023-01-20T16:46:56;19.10;;;10.23;;
15946;SDS011;8072;52.554;7.966;2023-01-20T16:49:22;24.90;;;10.47;;
15946;SDS011;8072;52.554;7.966;2023-01-20T16:51:48;22.37;;;11.73;;
15946;SDS011;8072;52.554;7.966;2023-01-20T16:54:14;19.87;;;10.53;;
15946;SDS011;8072;52.554;7.966;2023-01-20T16:56:39;20.97;;;10.60;;
15946;SDS011;8072;52.554;7.966;2023-01-20T16:59:05;22.60;;;11.93;;
15946;SDS011;8072;52.554;7.966;2023-01-20T17:01:32;21.37;;;12.37;;
15946;SDS011;8072;52.554;7.966;2023-01-20T17:03:58;21.23;;;11.87;;
15946;SDS011;8072;52.554;7.966;2023-01-20T17:06:26;20.67;;;11.97;;
15946;SDS011;8072;52.554;7.966;2023-01-20T17:08:55;21.97;;;12.50;;
15946;SDS011;8072;52.554;7.966;2023-01-20T17:11:26;25.30;;;14.27;;
15946;SDS011;8072;52.554;7.966;2023-01-20T17:14:05;23.47;;;13.30;;
15946;SDS011;8072;52.554;7.966;2023-01-20T17:16:32;22.67;;;11.83;;
15946;SDS011;8072;52.554;7.966;2023-01-20T17:18:59;27.90;;;13.00;;
15946;SDS011;8072;52.554;7.966;2023-01-20T17:21:26;21.37;;;11.47;;
15946;SDS011;8072;52.554;7.966;2023-01-20T17:23:54;21.43;;;11.47;;
15946;SDS011;8072;52.554;7.966;2023-01-20T17:26:22;23.03;;;12.23;;
15946;SDS011;8072;52.554;7.966;2023-01-20T17:28:52;25.47;;;13.37;;
15946;SDS011;8072;52.554;7.966;2023-01-20T17:31:19;24.63;;;12.83;;
15946;SDS011;8072;52.554;7.966;2023-01-20T17:33:45;27.00;;;13.23;;
15946;SDS011;8072;52.554;7.966;2023-01-20T17:36:11;26.33;;;13.40;;
15946;SDS011;8072;52.554;7.966;2023-01-20T17:38:37;24.63;;;12.50;;
15946;SDS011;8072;52.554;7.966;2023-01-20T17:41:04;22.50;;;12.37;;
15946;SDS011;8072;52.554;7.966;2023-01-20T17:43:31;29.30;;;14.57;;
15946;SDS011;8072;52.554;7.966;2023-01-20T17:45:58;26.83;;;12.83;;
15946;SDS011;8072;52.554;7.966;2023-01-20T17:48:24;26.87;;;13.43;;
15946;SDS011;8072;52.554;7.966;2023-01-20T17:50:51;27.03;;;13.10;;
15946;SDS011;8072;52.554;7.966;2023-01-20T17:53:22;25.70;;;13.70;;